Time;durP1;ratioP1;P1;durP2;ratioP2;P2;SDS_P1;SDS_P2;PMS_P1;PMS_P2;Temp;Humidity;BMP_temperature;BMP_pressure;BME280_temperature;BME280_humidity;BME280_pressure;Samples;Min_cycle;Max_cycle;Signal;HPM_P1;HPM_P2
2022/06/03 00:00:20;;;;;;;5.88;1.85;;;;;;;16.99;46.03;101849.53;5013277;28;20367;-64
2022/06/03 00:03:09;;;;;;;2.35;1.67;;;;;;;17.02;46.12;101846.31;5017574;28;20046;-64
2022/06/03 00:06:05;;;;;;;2.28;1.58;;;;;;;17.01;46.14;101857.44;5018215;28;20220;-64
2022/06/03 00:09:02;;;;;;;4.05;1.77;;;;;;;17.00;46.00;101855.78;5011217;28;20061;-64
2022/06/03 00:12:03;;;;;;;3.63;1.60;;;;;;;16.98;46.26;101847.03;5014601;28;20463;-64
2022/06/03 00:15:04;;;;;;;4.18;1.80;;;;;;;16.97;46.19;101845.41;5058308;28;20064;-64
2022/06/03 00:17:48;;;;;;;6.95;1.65;;;;;;;16.96;46.22;101854.59;5078590;28;20087;-64
2022/06/03 00:20:31;;;;;;;2.30;1.80;;;;;;;16.94;46.22;101852.13;5076656;28;20082;-64
2022/06/03 00:23:15;;;;;;;2.10;1.42;;;;;;;16.91;46.25;101848.00;5083008;28;20053;-64
2022/06/03 00:26:12;;;;;;;2.80;1.90;;;;;;;16.90;46.42;101846.34;5085241;28;20044;-64
2022/06/03 00:28:57;;;;;;;3.72;2.40;;;;;;;16.88;46.42;101840.34;5082544;28;20513;-64
2022/06/03 00:31:38;;;;;;;4.70;1.95;;;;;;;16.87;46.44;101846.00;5076840;28;20083;-64
2022/06/03 00:34:21;;;;;;;3.05;1.90;;;;;;;16.86;46.44;101841.63;5083348;28;20048;-64
2022/06/03 00:37:08;;;;;;;2.85;1.70;;;;;;;16.85;46.62;101851.69;5079215;28;20048;-64
2022/06/03 00:39:49;;;;;;;3.85;2.00;;;;;;;16.85;46.50;101848.13;5082130;28;20067;-64
2022/06/03 00:42:38;;;;;;;3.90;1.48;;;;;;;16.81;46.59;101845.06;5081958;28;20433;-64
2022/06/03 00:45:30;;;;;;;3.15;1.80;;;;;;;16.82;46.58;101856.75;5071643;28;20080;-64
2022/06/03 00:48:14;;;;;;;2.88;1.98;;;;;;;16.80;46.65;101845.31;5077841;28;20159;-64
2022/06/03 00:50:53;;;;;;;2.00;1.50;;;;;;;16.79;46.73;101846.38;5083871;28;20071;-64
2022/06/03 00:53:46;;;;;;;3.03;1.80;;;;;;;16.78;46.69;101844.72;5076099;28;20087;-64
2022/06/03 00:56:30;;;;;;;3.15;1.67;;;;;;;16.75;46.77;101846.03;5078325;28;20446;-64
2022/06/03 00:59:12;;;;;;;3.10;1.80;;;;;;;16.73;46.86;101841.91;5082642;28;20060;-64
2022/06/03 01:01:48;;;;;;;4.22;2.00;;;;;;;16.71;46.76;101842.13;5081463;28;20044;-63
2022/06/03 01:04:36;;;;;;;2.53;1.70;;;;;;;16.70;46.86;101836.94;5076495;28;20688;-64
2022/06/03 01:07:15;;;;;;;5.47;1.85;;;;;;;16.69;46.84;101841.56;5074826;28;20059;-64
2022/06/03 01:09:59;;;;;;;2.22;1.52;;;;;;;16.64;46.98;101833.25;5078107;28;20084;-64
2022/06/03 01:12:42;;;;;;;3.70;1.92;;;;;;;16.65;46.89;101831.41;5076732;28;20059;-64
2022/06/03 01:15:28;;;;;;;2.75;1.42;;;;;;;16.63;46.92;101826.19;5072954;28;20083;-64
2022/06/03 01:18:08;;;;;;;3.17;2.53;;;;;;;16.62;47.03;101819.09;5074976;28;20124;-64
2022/06/03 01:20:40;;;;;;;2.40;1.60;;;;;;;16.61;47.02;101822.88;5082138;28;20114;-64
2022/06/03 01:23:29;;;;;;;2.28;1.73;;;;;;;16.59;47.20;101817.69;5077859;28;20053;-64
2022/06/03 01:26:23;;;;;;;2.50;1.60;;;;;;;16.56;47.12;101818.16;5081723;28;20060;-64
2022/06/03 01:29:25;;;;;;;2.83;1.63;;;;;;;16.53;47.18;101813.22;5076814;28;20049;-64
2022/06/03 01:32:28;;;;;;;3.63;1.70;;;;;;;16.54;47.32;101814.88;5080689;28;20044;-64
2022/06/03 01:35:16;;;;;;;3.45;1.77;;;;;;;16.54;47.17;101811.31;5079721;28;20048;-64
2022/06/03 01:37:50;;;;;;;2.25;1.45;;;;;;;16.53;47.22;101809.69;5077373;28;20552;-64
2022/06/03 01:40:50;;;;;;;2.45;1.65;;;;;;;16.52;47.27;101816.16;5079868;28;20098;-64
2022/06/03 01:43:49;;;;;;;3.40;1.50;;;;;;;16.52;47.20;101802.59;5077526;28;20052;-64
2022/06/03 01:46:29;;;;;;;2.00;1.70;;;;;;;16.51;47.32;101803.66;5068641;28;20052;-64
2022/06/03 01:49:27;;;;;;;3.17;1.77;;;;;;;16.49;47.34;101801.19;5082232;28;20567;-64
2022/06/03 01:52:16;;;;;;;2.92;2.00;;;;;;;16.49;47.33;101803.91;5080437;28;20056;-63
2022/06/03 01:55:17;;;;;;;2.55;1.83;;;;;;;16.46;47.38;101796.22;5077261;28;20063;-64
2022/06/03 01:58:12;;;;;;;6.45;1.98;;;;;;;16.45;47.41;101796.47;5068164;28;20080;-64
2022/06/03 02:00:43;;;;;;;2.03;1.52;;;;;;;16.44;47.55;101795.66;5074322;28;20052;-64
2022/06/03 02:03:42;;;;;;;2.90;1.67;;;;;;;16.44;47.36;101792.09;5087294;28;20079;-64
2022/06/03 02:06:51;;;;;;;1.92;1.70;;;;;;;16.43;47.43;101794.00;5081628;28;20072;-64
2022/06/03 02:09:42;;;;;;;3.72;1.73;;;;;;;16.42;47.42;101788.81;5085549;28;20140;-64
2022/06/03 02:12:31;;;;;;;3.20;1.70;;;;;;;16.40;47.43;101783.63;5081512;28;20045;-64
2022/06/03 02:15:30;;;;;;;4.35;1.77;;;;;;;16.39;47.56;101775.72;5082916;28;20048;-64
2022/06/03 02:18:36;;;;;;;4.60;1.85;;;;;;;16.38;47.78;101787.63;5085348;28;20044;-64
2022/06/03 02:21:22;;;;;;;3.33;2.20;;;;;;;16.37;47.85;101783.25;5075772;28;20067;-64
2022/06/03 02:24:19;;;;;;;3.33;1.70;;;;;;;16.37;47.83;101788.69;5085719;28;20049;-64
2022/06/03 02:27:18;;;;;;;3.10;1.83;;;;;;;16.35;47.86;101783.50;5081850;28;20052;-64
2022/06/03 02:30:26;;;;;;;3.40;2.08;;;;;;;16.34;47.97;101781.03;5082983;28;20302;-64
2022/06/03 02:33:23;;;;;;;2.83;1.83;;;;;;;16.32;47.79;101783.16;5082204;28;20076;-64
2022/06/03 02:36:22;;;;;;;2.75;2.00;;;;;;;16.30;48.06;101775.25;5082100;28;20087;-64
2022/06/03 02:39:04;;;;;;;2.53;1.83;;;;;;;16.27;47.89;101767.59;5084354;28;20083;-63
2022/06/03 02:41:52;;;;;;;2.45;1.98;;;;;;;16.25;48.04;101767.81;5081164;28;20091;-64
2022/06/03 02:44:43;;;;;;;3.72;2.10;;;;;;;16.24;48.14;101770.78;5081560;28;20106;-64
2022/06/03 02:47:49;;;;;;;7.88;2.40;;;;;;;16.22;48.05;101771.00;5081773;28;20091;-64
2022/06/03 02:50:33;;;;;;;2.90;1.85;;;;;;;16.21;48.02;101769.34;4992847;28;20058;-64
2022/06/03 02:53:42;;;;;;;3.58;1.98;;;;;;;16.20;48.09;101772.31;4993090;28;20131;-64
2022/06/03 02:56:29;;;;;;;4.07;2.22;;;;;;;16.17;48.20;101773.59;4994694;28;20062;-64
2022/06/03 02:59:19;;;;;;;3.95;2.05;;;;;;;16.16;48.20;101776.56;4999860;28;20097;-64
2022/06/03 03:02:06;;;;;;;5.10;1.98;;;;;;;16.15;48.27;101774.91;5002070;28;20061;-64
2022/06/03 03:04:55;;;;;;;5.45;1.70;;;;;;;16.14;48.29;101779.50;4992576;28;20448;-63
2022/06/03 03:07:52;;;;;;;4.70;2.25;;;;;;;16.12;48.17;101778.91;4997217;28;20050;-64
2022/06/03 03:10:44;;;;;;;2.33;1.80;;;;;;;16.10;48.27;101775.63;4983500;28;20554;-64
2022/06/03 03:13:47;;;;;;;5.05;2.20;;;;;;;16.09;48.13;101765.81;5000128;28;20177;-64
2022/06/03 03:16:48;;;;;;;4.40;2.40;;;;;;;16.07;48.33;101759.81;4958604;28;20114;-64
2022/06/03 03:19:41;;;;;;;3.08;2.10;;;;;;;16.06;48.27;101760.03;4992733;28;20114;-64
2022/06/03 03:22:59;;;;;;;3.30;2.30;;;;;;;16.05;48.49;101763.81;4997465;28;20053;-64
2022/06/03 03:25:41;;;;;;;4.38;2.17;;;;;;;16.04;48.68;101760.28;4990929;28;20064;-64
2022/06/03 03:28:27;;;;;;;3.55;2.55;;;;;;;16.04;48.51;101754.84;5080946;28;20048;-64
2022/06/03 03:31:17;;;;;;;3.25;1.98;;;;;;;16.03;48.32;101750.50;5078280;28;20116;-64
2022/06/03 03:34:10;;;;;;;3.13;2.42;;;;;;;16.01;48.72;101747.19;5070696;28;20040;-64
2022/06/03 03:37:00;;;;;;;4.97;2.58;;;;;;;16.01;48.60;101749.09;5080718;28;20099;-64
2022/06/03 03:40:09;;;;;;;4.70;2.10;;;;;;;15.99;48.68;101746.59;5077476;28;20072;-64
2022/06/03 03:43:02;;;;;;;4.22;2.28;;;;;;;15.99;48.85;101753.91;5081257;28;20052;-64
2022/06/03 03:46:09;;;;;;;2.53;1.88;;;;;;;15.98;48.58;101760.41;5056037;28;20045;-64
2022/06/03 03:48:59;;;;;;;3.00;1.97;;;;;;;15.97;48.63;101753.31;5050141;28;20052;-64
2022/06/03 03:52:05;;;;;;;2.95;2.20;;;;;;;15.94;48.63;101747.31;5083977;28;20068;-64
2022/06/03 03:55:26;;;;;;;3.33;2.15;;;;;;;15.94;48.62;101750.03;5076220;28;20052;-64
2022/06/03 03:58:18;;;;;;;3.55;2.42;;;;;;;15.92;48.72;101749.44;5015750;28;20153;-64
2022/06/03 04:01:23;;;;;;;2.95;2.13;;;;;;;15.91;48.94;101747.78;5011434;28;20069;-64
2022/06/03 04:04:32;;;;;;;4.53;2.60;;;;;;;15.89;49.02;101738.22;5018490;28;20053;-64
2022/06/03 04:07:22;;;;;;;3.42;2.13;;;;;;;15.88;48.83;101739.28;5002944;28;20149;-64
2022/06/03 04:10:22;;;;;;;3.13;2.30;;;;;;;15.87;49.22;101737.66;5018976;28;20530;-64
2022/06/03 04:13:15;;;;;;;4.78;2.30;;;;;;;15.85;48.92;101740.59;5019406;28;20178;-64
2022/06/03 04:16:34;;;;;;;3.65;2.50;;;;;;;15.83;48.93;101731.03;5019067;28;20180;-64
2022/06/03 04:19:37;;;;;;;3.40;2.45;;;;;;;15.81;48.91;101734.00;4946995;28;20190;-64
2022/06/03 04:22:39;;;;;;;3.05;2.30;;;;;;;15.79;49.20;101724.44;4963967;28;20051;-64
2022/06/03 04:25:39;;;;;;;3.33;2.28;;;;;;;15.77;49.20;101735.50;4972653;28;20082;-64
2022/06/03 04:28:27;;;;;;;3.25;2.67;;;;;;;15.76;49.37;101728.44;4937701;28;20097;-64
2022/06/03 04:31:36;;;;;;;3.03;2.28;;;;;;;15.74;49.39;101722.44;4967535;28;20488;-64
2022/06/03 04:34:52;;;;;;;5.57;2.47;;;;;;;15.73;49.48;101723.50;4989231;28;20073;-64
2022/06/03 04:38:19;;;;;;;3.03;2.15;;;;;;;15.72;49.51;101737.28;5002985;28;20074;-63
2022/06/03 04:41:40;;;;;;;3.53;2.00;;;;;;;15.71;49.65;101735.63;4996828;28;20153;-64
2022/06/03 04:44:57;;;;;;;3.42;2.08;;;;;;;15.69;49.17;101741.28;4997858;28;20054;-64
2022/06/03 04:48:31;;;;;;;3.40;2.50;;;;;;;15.67;49.39;101746.09;5004752;28;20503;-64
2022/06/03 04:51:40;;;;;;;5.85;2.40;;;;;;;15.67;49.44;101748.00;5036828;28;20593;-64
2022/06/03 04:54:57;;;;;;;4.22;2.70;;;;;;;15.67;49.78;101745.28;5039279;28;20045;-64
2022/06/03 04:58:15;;;;;;;4.72;2.70;;;;;;;15.68;49.66;101752.34;5034260;28;20642;-64
2022/06/03 05:01:25;;;;;;;3.10;2.03;;;;;;;15.68;49.63;101746.94;4958562;28;20050;-64
2022/06/03 05:04:43;;;;;;;3.70;2.13;;;;;;;15.69;49.25;101744.00;4960778;28;20079;-64
2022/06/03 05:07:54;;;;;;;4.70;2.00;;;;;;;15.71;49.53;101744.59;4957948;28;20070;-64
2022/06/03 05:10:59;;;;;;;4.30;2.40;;;;;;;15.74;49.43;101749.53;4959525;28;20058;-65
2022/06/03 05:14:18;;;;;;;4.88;2.53;;;;;;;15.77;49.43;101740.09;4962424;28;20157;-64
2022/06/03 05:17:22;;;;;;;4.97;2.60;;;;;;;15.80;49.40;101736.94;4959526;28;20043;-64
2022/06/03 05:20:23;;;;;;;3.00;2.20;;;;;;;15.83;49.25;101739.19;4613841;28;9999750;-64
2022/06/03 05:23:10;;;;;;;4.00;2.50;;;;;;;15.87;49.34;101740.34;4990797;28;20523;-64
2022/06/03 05:25:59;;;;;;;3.60;2.35;;;;;;;15.89;49.33;101736.34;4992574;28;20162;-64
2022/06/03 05:28:55;;;;;;;3.75;2.40;;;;;;;15.92;49.51;101726.91;4991211;28;20090;-68
2022/06/03 05:31:52;;;;;;;4.68;2.67;;;;;;;15.94;49.64;101724.81;4998072;28;20078;-67
2022/06/03 05:34:52;;;;;;;3.00;2.20;;;;;;;15.97;49.38;101727.03;4994444;28;20074;-64
2022/06/03 05:37:47;;;;;;;3.35;2.20;;;;;;;16.00;49.73;101728.44;5045477;28;20059;-64
2022/06/03 05:40:38;;;;;;;4.00;2.50;;;;;;;16.03;49.59;101730.69;5068321;28;20067;-64
2022/06/03 05:43:42;;;;;;;3.75;2.42;;;;;;;16.04;49.51;101726.91;5078634;28;20055;-64
2022/06/03 05:46:18;;;;;;;2.90;2.40;;;;;;;16.05;49.57;101723.16;5076478;28;20064;-65
2022/06/03 05:48:56;;;;;;;3.35;2.58;;;;;;;16.08;49.58;101726.22;5078617;28;20049;-63
2022/06/03 05:51:43;;;;;;;3.72;2.33;;;;;;;16.10;49.78;101721.38;5076746;28;20072;-63
2022/06/03 05:54:24;;;;;;;5.43;2.53;;;;;;;16.11;49.61;101722.19;5077375;28;20055;-63
2022/06/03 05:57:00;;;;;;;3.92;2.47;;;;;;;16.12;49.91;101732.81;5078935;28;20080;-63
2022/06/03 05:59:48;;;;;;;3.20;2.22;;;;;;;16.15;49.77;101732.34;5068454;28;20467;-63
2022/06/03 06:02:24;;;;;;;3.15;2.50;;;;;;;16.17;49.94;101741.06;5071868;28;20076;-66
2022/06/03 06:05:05;;;;;;;3.47;2.05;;;;;;;16.20;49.99;101731.63;5068537;28;20059;-66
2022/06/03 06:07:40;;;;;;;3.60;2.28;;;;;;;16.17;49.80;101722.06;5067881;28;20040;-65
2022/06/03 06:10:19;;;;;;;4.72;2.40;;;;;;;16.23;49.81;101723.84;5070447;28;20048;-65
2022/06/03 06:12:57;;;;;;;4.30;2.80;;;;;;;16.19;49.93;101717.22;5071500;28;20087;-66
2022/06/03 06:15:46;;;;;;;3.80;2.45;;;;;;;16.28;50.03;101729.38;5074974;28;20115;-66
2022/06/03 06:18:26;;;;;;;4.30;2.38;;;;;;;16.31;50.08;101733.50;5079292;28;20053;-66
2022/06/03 06:21:04;;;;;;;8.50;2.55;;;;;;;16.32;50.15;101731.59;5082832;28;20052;-66
2022/06/03 06:23:42;;;;;;;4.55;2.58;;;;;;;16.37;50.25;101735.25;5077315;28;20077;-66
2022/06/03 06:26:27;;;;;;;6.68;2.60;;;;;;;16.39;50.18;101725.00;5065962;28;20052;-65
2022/06/03 06:29:31;;;;;;;5.82;2.45;;;;;;;16.43;50.02;101731.59;4725121;28;10000690;-65
2022/06/03 06:32:49;;;;;;;3.63;2.25;;;;;;;16.47;50.01;101729.22;5080961;28;20048;-66
2022/06/03 06:35:54;;;;;;;6.05;2.60;;;;;;;16.50;49.84;101726.84;5069027;28;20386;-65
2022/06/03 06:38:31;;;;;;;3.88;2.53;;;;;;;16.53;50.08;101733.69;5068004;28;20053;-66
2022/06/03 06:41:17;;;;;;;4.32;2.63;;;;;;;16.56;49.88;101731.31;5080233;28;20060;-65
2022/06/03 06:43:52;;;;;;;4.75;3.28;;;;;;;16.59;50.11;101727.31;5076665;28;20045;-65
2022/06/03 06:46:28;;;;;;;3.67;2.40;;;;;;;16.60;49.97;101721.63;5079599;28;20375;-67
2022/06/03 06:49:10;;;;;;;4.63;2.65;;;;;;;16.62;49.98;101718.69;5076538;28;21315;-65
2022/06/03 06:52:05;;;;;;;4.20;2.50;;;;;;;16.66;50.18;101725.31;5077831;28;20091;-65
2022/06/03 06:54:42;;;;;;;4.40;2.45;;;;;;;16.69;50.07;101729.44;5076396;28;20124;-67
2022/06/03 06:57:15;;;;;;;4.13;2.90;;;;;;;16.72;50.15;101731.66;5079104;28;20466;-66
2022/06/03 06:59:48;;;;;;;3.22;2.42;;;;;;;16.74;50.09;101734.97;5077108;28;20086;-65
2022/06/03 07:02:21;;;;;;;4.85;2.80;;;;;;;16.76;50.04;101732.84;5079054;28;20145;-66
2022/06/03 07:04:54;;;;;;;4.22;2.90;;;;;;;16.78;50.08;101738.84;5076282;28;20053;-65
2022/06/03 07:07:27;;;;;;;3.63;2.40;;;;;;;16.79;49.94;101727.75;5077333;28;20037;-65
2022/06/03 07:10:01;;;;;;;2.53;2.10;;;;;;;16.80;50.01;101723.13;5074802;28;20067;-66
2022/06/03 07:12:35;;;;;;;4.55;2.50;;;;;;;16.82;50.13;101721.00;5077797;28;20362;-65
2022/06/03 07:15:26;;;;;;;8.68;2.55;;;;;;;16.84;50.13;101724.31;5070702;28;20536;-66
2022/06/03 07:21:04;;;;;;;2.92;2.30;;;;;;;16.86;50.13;101709.41;5075090;28;20110;-65
2022/06/03 07:23:38;;;;;;;5.97;2.40;;;;;;;16.89;50.06;101711.66;5078301;28;20056;-65
2022/06/03 07:26:16;;;;;;;5.15;2.80;;;;;;;16.89;50.11;101708.13;5071680;28;20044;-66
2022/06/03 07:28:52;;;;;;;5.40;2.88;;;;;;;16.91;50.11;101719.56;5077920;28;20045;-66
2022/06/03 07:31:28;;;;;;;4.43;2.30;;;;;;;16.91;50.09;101720.38;5070639;28;20056;-65
2022/06/03 07:34:03;;;;;;;4.68;2.67;;;;;;;16.91;50.22;101720.38;5076262;28;20048;-66
2022/06/03 07:36:39;;;;;;;4.05;2.65;;;;;;;16.92;50.36;101716.59;5074360;28;20488;-66
2022/06/03 07:39:37;;;;;;;7.35;2.50;;;;;;;16.95;50.38;101709.84;5079079;28;20072;-65
2022/06/03 07:42:11;;;;;;;4.47;2.50;;;;;;;16.87;50.44;101693.94;5077208;28;20087;-69
2022/06/03 07:44:47;;;;;;;2.97;2.22;;;;;;;16.97;50.56;101702.28;5071153;28;20076;-68
2022/06/03 07:47:18;;;;;;;;;;;;;;;17.00;50.55;101703.69;5082635;28;20079;-67
2022/06/03 07:49:52;;;;;;;4.55;2.17;;;;;;;17.02;50.52;101709.72;5080334;28;19931;-67
2022/06/03 07:52:36;;;;;;;4.72;1.95;;;;;;;17.02;50.59;101707.81;5078072;28;20072;-67
2022/06/03 07:55:12;;;;;;;5.38;2.17;;;;;;;17.04;50.55;101713.00;5084351;28;20466;-67
2022/06/03 07:57:40;;;;;;;5.57;2.60;;;;;;;16.99;50.50;101702.88;5085487;28;20094;-67
2022/06/03 08:00:15;;;;;;;2.40;1.90;;;;;;;17.07;50.57;101710.63;5071604;28;20079;-67
2022/06/03 08:02:44;;;;;;;5.22;2.28;;;;;;;17.08;50.62;101698.69;5080215;28;20476;-67
2022/06/03 08:05:15;;;;;;;6.22;2.53;;;;;;;17.09;50.62;101696.81;5083597;28;20154;-66
2022/06/03 08:13:21;;;;;;;3.53;2.08;;;;;;;17.14;50.84;101689.56;5075143;28;20098;-66
2022/06/03 08:15:53;;;;;;;6.47;2.72;;;;;;;17.18;51.02;101681.75;5078724;28;20060;-66
2022/06/03 08:18:25;;;;;;;4.68;2.40;;;;;;;17.21;51.05;101681.25;5079088;28;20092;-66
2022/06/03 08:20:58;;;;;;;10.07;2.60;;;;;;;17.24;51.01;101683.50;5076590;28;20047;-65
2022/06/03 08:23:30;;;;;;;4.18;2.40;;;;;;;17.28;51.21;101675.66;5079327;28;20473;-66
2022/06/03 08:26:00;;;;;;;2.97;2.05;;;;;;;17.28;51.20;101670.25;5079507;28;20097;-66
2022/06/03 08:28:31;;;;;;;3.85;1.95;;;;;;;17.29;51.24;101672.72;5069563;28;20083;-66
2022/06/03 08:31:02;;;;;;;4.65;2.30;;;;;;;17.35;51.15;101676.31;5079725;28;20036;-66
2022/06/03 08:33:39;;;;;;;3.10;1.77;;;;;;;17.38;51.25;101673.91;5080764;28;20058;-66
2022/06/03 08:36:08;;;;;;;4.55;2.05;;;;;;;17.40;51.21;101679.94;5067682;28;21370;-66
2022/06/03 08:38:41;;;;;;;3.72;2.38;;;;;;;17.43;51.36;101667.75;5071541;28;20453;-67
2022/06/03 08:41:26;;;;;;;3.00;2.00;;;;;;;17.44;51.29;101675.66;5078043;28;20616;-69
2022/06/03 08:44:14;;;;;;;5.97;2.70;;;;;;;17.47;51.28;101671.59;5077774;28;20060;-67
2022/06/03 08:46:53;;;;;;;3.33;2.40;;;;;;;17.50;51.37;101666.50;5073261;28;20069;-67
2022/06/03 08:49:27;;;;;;;3.67;2.03;;;;;;;17.52;51.47;101664.34;5069691;28;20052;-67
2022/06/03 08:52:02;;;;;;;6.25;2.30;;;;;;;17.55;51.47;101666.59;5077672;28;20106;-67
2022/06/03 08:54:36;;;;;;;2.70;1.90;;;;;;;17.57;51.43;101671.78;5084112;28;20531;-67
2022/06/03 08:57:11;;;;;;;5.22;2.17;;;;;;;17.62;51.58;101673.75;5083414;28;20113;-67
2022/06/03 08:59:42;;;;;;;3.50;1.92;;;;;;;17.65;51.38;101676.78;5070142;28;20048;-67
2022/06/03 09:02:25;;;;;;;4.07;2.50;;;;;;;17.66;51.23;101675.75;5083970;28;20418;-67
2022/06/03 09:05:02;;;;;;;2.25;1.90;;;;;;;17.72;51.38;101672.03;5082705;28;20052;-67
2022/06/03 09:07:44;;;;;;;5.72;2.13;;;;;;;17.77;51.29;101680.25;5082042;28;20060;-67
2022/06/03 09:10:18;;;;;;;3.05;1.80;;;;;;;17.79;51.23;101667.25;5082481;28;20048;-66
2022/06/03 09:12:55;;;;;;;3.45;2.05;;;;;;;17.81;51.29;101662.38;5079467;28;20044;-67
2022/06/03 09:15:26;;;;;;;2.63;1.98;;;;;;;17.85;51.20;101671.69;5082530;28;20080;-67
2022/06/03 09:17:59;;;;;;;4.85;1.98;;;;;;;17.87;51.17;101666.00;5081747;28;20044;-67
2022/06/03 09:20:31;;;;;;;5.13;1.83;;;;;;;17.89;51.30;101658.41;5080713;28;20041;-67
2022/06/03 09:23:02;;;;;;;4.97;1.90;;;;;;;17.88;51.38;101657.59;5084270;28;20079;-67
2022/06/03 09:25:32;;;;;;;3.33;1.60;;;;;;;17.95;51.27;101668.28;5076534;28;20048;-67
2022/06/03 09:28:03;;;;;;;2.97;1.65;;;;;;;17.99;51.19;101664.00;5082873;28;20045;-67
2022/06/03 09:30:37;;;;;;;5.20;2.40;;;;;;;18.00;51.30;101660.19;5081372;28;20044;-67
2022/06/03 09:33:07;;;;;;;3.28;1.80;;;;;;;18.03;51.26;101658.88;5079485;28;20090;-67
2022/06/03 09:35:40;;;;;;;3.13;1.77;;;;;;;18.09;51.42;101664.13;5077557;28;20056;-67
2022/06/03 09:38:10;;;;;;;4.65;1.90;;;;;;;18.13;51.25;101673.44;5080379;28;20048;-67
2022/06/03 09:40:43;;;;;;;2.33;1.58;;;;;;;18.16;51.20;101655.78;5074454;28;20059;-67
2022/06/03 09:43:18;;;;;;;4.43;1.67;;;;;;;18.19;51.31;101658.81;4719138;28;9999858;-67
2022/06/03 09:45:47;;;;;;;2.90;1.73;;;;;;;18.26;51.22;101658.63;5080645;28;20045;-67
2022/06/03 09:48:17;;;;;;;3.22;1.85;;;;;;;18.30;51.04;101657.03;5064752;28;20075;-67
2022/06/03 09:50:50;;;;;;;3.05;1.73;;;;;;;18.31;50.95;101653.25;5068309;28;20053;-67
2022/06/03 09:53:20;;;;;;;2.35;1.50;;;;;;;18.32;50.59;101649.44;5075274;28;20087;-67
2022/06/03 09:55:52;;;;;;;3.72;1.42;;;;;;;18.33;50.47;101642.09;5080643;28;20130;-67
2022/06/03 09:58:29;;;;;;;3.05;1.88;;;;;;;18.35;50.51;101643.50;5082703;28;20055;-67
2022/06/03 10:00:59;;;;;;;5.63;1.95;;;;;;;18.38;50.30;101642.16;5069050;28;20132;-66
2022/06/03 10:03:28;;;;;;;4.15;1.60;;;;;;;18.40;50.27;101648.19;5082772;28;20110;-68
2022/06/03 10:05:59;;;;;;;3.47;1.33;;;;;;;18.47;50.17;101646.09;5081664;28;20068;-67
2022/06/03 10:12:48;;;;;;;4.05;2.08;;;;;;;18.53;49.98;101643.16;5080583;28;20052;-67
2022/06/03 10:14:05;;;;;;;1.92;1.50;;;;;;;18.67;49.77;101643.63;5064409;28;20155;-67
2022/06/03 10:16:33;;;;;;;3.22;1.60;;;;;;;18.72;49.57;101634.69;5075812;28;20056;-67
2022/06/03 10:19:01;;;;;;;2.72;1.58;;;;;;;18.78;49.59;101631.75;5087559;28;20050;-67
2022/06/03 10:21:33;;;;;;;1.92;1.40;;;;;;;18.83;49.67;101637.25;5085718;28;20052;-68
2022/06/03 10:24:04;;;;;;;1.80;1.60;;;;;;;18.89;49.64;101632.69;5079751;28;20049;-66
2022/06/03 10:26:40;;;;;;;2.92;1.65;;;;;;;18.97;49.39;101617.75;5080247;28;20048;-66
2022/06/03 10:29:10;;;;;;;1.75;1.10;;;;;;;19.01;49.22;101627.88;5075546;28;20056;-67
2022/06/03 10:31:49;;;;;;;2.90;1.38;;;;;;;19.02;48.90;101612.34;5076125;28;20059;-67
2022/06/03 10:34:21;;;;;;;3.13;1.58;;;;;;;18.98;48.03;101609.34;5086208;28;20041;-66
2022/06/03 10:36:53;;;;;;;2.17;1.45;;;;;;;18.99;48.47;101615.59;5072711;28;20060;-67
2022/06/03 10:39:23;;;;;;;5.80;1.58;;;;;;;19.07;48.02;101609.66;5087185;28;20087;-66
2022/06/03 10:41:53;;;;;;;3.35;1.52;;;;;;;19.08;46.48;101611.28;5085827;28;20048;-66
2022/06/03 10:44:23;;;;;;;5.25;1.60;;;;;;;19.08;46.43;101603.13;5086308;28;20095;-67
2022/06/03 10:46:56;;;;;;;1.42;1.25;;;;;;;19.09;46.47;101610.22;5085844;28;20057;-67
2022/06/03 10:49:26;;;;;;;5.55;1.27;;;;;;;19.11;47.02;101608.03;5086734;28;20045;-67
2022/06/03 11:03:07;;;;;;;2.15;1.38;;;;;;;19.50;46.00;101600.44;5076155;28;20072;-67
2022/06/03 11:05:37;;;;;;;1.98;1.25;;;;;;;19.55;46.44;101602.41;5085936;28;20126;-67
2022/06/03 11:08:09;;;;;;;1.73;1.30;;;;;;;19.60;46.45;101600.53;5084986;28;20072;-67
2022/06/03 11:10:40;;;;;;;2.20;1.63;;;;;;;19.65;46.34;101602.47;5086263;28;20053;-67
2022/06/03 11:13:14;;;;;;;2.45;1.50;;;;;;;19.75;46.88;101605.25;5085361;28;20068;-66
2022/06/03 11:15:44;;;;;;;3.97;0.95;;;;;;;19.84;46.43;101600.94;5084893;28;20064;-66
2022/06/03 11:18:17;;;;;;;1.48;1.20;;;;;;;19.88;45.55;101593.03;5082170;28;20067;-66
2022/06/03 11:20:47;;;;;;;3.90;1.42;;;;;;;19.87;45.00;101600.41;5086385;28;20052;-66
2022/06/03 11:23:17;;;;;;;1.65;1.23;;;;;;;19.86;45.35;101596.03;5077576;28;20040;-67
2022/06/03 11:25:47;;;;;;;3.25;1.20;;;;;;;19.93;47.58;101596.59;5085668;28;20049;-68
2022/06/03 11:28:19;;;;;;;1.27;1.17;;;;;;;20.03;47.06;101588.47;5084493;28;20083;-67
2022/06/03 11:31:05;;;;;;;2.65;1.23;;;;;;;20.06;45.87;101581.66;5076228;28;20087;-67
2022/06/03 11:33:38;;;;;;;1.20;1.10;;;;;;;20.05;46.63;101571.81;5072161;28;20121;-68
2022/06/03 11:36:10;;;;;;;1.00;0.70;;;;;;;20.16;46.64;101587.16;5076852;28;20056;-68
2022/06/03 11:38:42;;;;;;;1.15;0.90;;;;;;;20.23;46.67;101592.34;5075080;28;20048;-68
2022/06/03 11:41:15;;;;;;;1.35;1.05;;;;;;;20.29;46.68;101580.38;5081117;28;20477;-68
2022/06/03 11:43:49;;;;;;;1.13;1.02;;;;;;;20.29;45.86;101578.47;5083590;28;20110;-68
2022/06/03 11:46:34;;;;;;;1.20;1.00;;;;;;;20.32;46.15;101585.28;5078286;28;20048;-68
2022/06/03 11:49:04;;;;;;;3.05;1.20;;;;;;;20.35;46.37;101571.91;5075464;28;20395;-68
2022/06/03 11:51:32;;;;;;;2.17;1.20;;;;;;;20.45;46.08;101590.28;5077061;28;20163;-68
2022/06/03 11:54:02;;;;;;;2.58;1.00;;;;;;;20.50;45.30;101589.47;5075614;28;20048;-67
2022/06/03 11:56:36;;;;;;;1.75;1.13;;;;;;;20.58;46.48;101588.94;5073314;28;20461;-68
2022/06/03 11:59:09;;;;;;;1.98;1.08;;;;;;;20.72;46.37;101595.50;5078437;28;20048;-68
2022/06/03 12:01:45;;;;;;;1.05;0.95;;;;;;;20.80;46.76;101600.44;5077555;28;20059;-68
2022/06/03 12:04:25;;;;;;;1.42;1.10;;;;;;;20.87;46.29;101592.75;5071403;28;20072;-68
2022/06/03 12:07:02;;;;;;;1.17;0.95;;;;;;;20.91;45.89;101584.84;5079086;28;20056;-68
2022/06/03 12:09:45;;;;;;;1.40;0.90;;;;;;;20.99;45.74;101589.75;5078407;28;20040;-68
2022/06/03 12:15:33;;;;;;;2.70;1.35;;;;;;;21.14;44.46;101578.81;5054605;28;20485;-63
2022/06/03 12:18:17;;;;;;;1.85;1.00;;;;;;;21.13;44.03;101579.91;5083652;28;20044;-63
2022/06/03 12:20:55;;;;;;;1.77;1.08;;;;;;;21.08;42.90;101568.97;5076547;28;20465;-63
2022/06/03 12:23:50;;;;;;;1.98;1.15;;;;;;;21.07;44.70;101578.28;5072235;28;20377;-63
2022/06/03 12:26:26;;;;;;;1.33;0.98;;;;;;;21.07;42.70;101568.16;5085054;28;20078;-66
2022/06/03 12:28:57;;;;;;;2.42;1.10;;;;;;;21.06;43.66;101569.25;5073077;28;20387;-63
2022/06/03 12:31:36;;;;;;;2.97;1.17;;;;;;;21.07;43.94;101567.34;5075869;28;20049;-63
2022/06/03 12:34:20;;;;;;;2.63;1.20;;;;;;;21.06;43.17;101569.25;5081987;28;20045;-63
2022/06/03 12:37:00;;;;;;;2.00;1.10;;;;;;;21.10;44.35;101562.16;4734092;28;9999755;-62
2022/06/03 12:39:31;;;;;;;1.80;1.30;;;;;;;21.17;44.82;101563.78;5077393;28;20477;-61
2022/06/03 12:42:08;;;;;;;0.95;0.80;;;;;;;21.23;45.25;101559.97;5077114;28;20056;-62
2022/06/03 12:44:40;;;;;;;1.65;1.08;;;;;;;21.28;45.35;101560.78;5079061;28;20111;-61
2022/06/03 12:47:27;;;;;;;1.77;1.13;;;;;;;21.35;45.68;101553.13;5072702;28;20064;-63
2022/06/03 12:49:57;;;;;;;1.77;1.00;;;;;;;21.41;45.40;101556.66;5080454;28;20045;-62
2022/06/03 12:52:41;;;;;;;1.20;1.00;;;;;;;21.46;45.84;101555.84;5081473;28;20048;-62
2022/06/03 12:55:19;;;;;;;1.88;1.00;;;;;;;21.52;45.73;101554.72;5073871;28;20052;-62
2022/06/03 12:57:50;;;;;;;0.93;0.90;;;;;;;21.57;45.92;101541.03;5078265;28;20052;-62
2022/06/03 13:00:26;;;;;;;1.40;1.05;;;;;;;21.62;45.54;101541.03;5074289;28;20091;-62
2022/06/03 13:02:57;;;;;;;1.73;1.15;;;;;;;21.65;45.32;101535.00;5078543;28;20048;-62
2022/06/03 13:05:38;;;;;;;1.25;1.10;;;;;;;21.72;45.74;101538.25;5080324;28;20044;-62
2022/06/03 13:08:10;;;;;;;1.08;0.93;;;;;;;21.78;46.01;101545.34;5077971;28;20052;-61